sensor_id;sensor_type;location;lat;lon;timestamp;pressure;altitude;pressure_sealevel;temperature;humidity
55759;BME280;41678;52.126;20.664;2023-01-29T00:03:38;101261.53;;;-1.67;91.83
55759;BME280;41678;52.126;20.664;2023-01-29T00:08:58;101244.94;;;-1.72;91.46
55759;BME280;41678;52.126;20.664;2023-01-29T00:14:18;101247.50;;;-1.72;91.62
55759;BME280;41678;52.126;20.664;2023-01-29T00:19:38;101235.91;;;-1.80;92.24
55759;BME280;41678;52.126;20.664;2023-01-29T00:24:57;101219.81;;;-1.75;92.02
55759;BME280;41678;52.126;20.664;2023-01-29T00:30:17;101231.84;;;-1.75;91.69
55759;BME280;41678;52.126;20.664;2023-01-29T00:35:38;101212.47;;;-1.83;91.71
55759;BME280;41678;52.126;20.664;2023-01-29T00:41:07;101212.31;;;-1.87;91.82
55759;BME280;41678;52.126;20.664;2023-01-29T00:46:45;101198.59;;;-1.86;92.19
55759;BME280;41678;52.126;20.664;2023-01-29T00:52:05;101202.63;;;-1.91;92.08
55759;BME280;41678;52.126;20.664;2023-01-29T00:57:42;101194.25;;;-1.87;92.65
55759;BME280;41678;52.126;20.664;2023-01-29T01:03:02;101191.66;;;-1.87;92.21
55759;BME280;41678;52.126;20.664;2023-01-29T01:08:25;101175.63;;;-1.81;92.14
55759;BME280;41678;52.126;20.664;2023-01-29T01:14:03;101157.94;;;-1.90;92.28
55759;BME280;41678;52.126;20.664;2023-01-29T01:19:22;101146.66;;;-1.92;92.94
55759;BME280;41678;52.126;20.664;2023-01-29T01:24:42;101148.75;;;-1.85;92.71
55759;BME280;41678;52.126;20.664;2023-01-29T01:30:03;101139.97;;;-1.88;93.07
55759;BME280;41678;52.126;20.664;2023-01-29T01:35:23;101144.88;;;-1.93;92.77
55759;BME280;41678;52.126;20.664;2023-01-29T01:40:44;101145.34;;;-1.83;93.03
55759;BME280;41678;52.126;20.664;2023-01-29T01:46:04;101144.22;;;-1.89;93.31
55759;BME280;41678;52.126;20.664;2023-01-29T01:51:25;101138.09;;;-1.91;93.03
55759;BME280;41678;52.126;20.664;2023-01-29T01:56:51;101143.25;;;-1.91;93.17
55759;BME280;41678;52.126;20.664;2023-01-29T02:02:15;101155.09;;;-1.94;93.44
55759;BME280;41678;52.126;20.664;2023-01-29T02:07:54;101143.56;;;-1.85;93.14
55759;BME280;41678;52.126;20.664;2023-01-29T02:13:32;101156.97;;;-1.92;93.13
55759;BME280;41678;52.126;20.664;2023-01-29T02:18:53;101147.72;;;-1.88;93.18
55759;BME280;41678;52.126;20.664;2023-01-29T02:24:58;101142.28;;;-1.93;93.29
55759;BME280;41678;52.126;20.664;2023-01-29T02:30:36;101152.78;;;-1.90;93.45
55759;BME280;41678;52.126;20.664;2023-01-29T02:36:04;101126.16;;;-1.89;93.28
55759;BME280;41678;52.126;20.664;2023-01-29T02:41:48;101124.38;;;-1.90;93.40
55759;BME280;41678;52.126;20.664;2023-01-29T02:53:15;101103.25;;;-1.99;93.51
55759;BME280;41678;52.126;20.664;2023-01-29T02:58:37;101114.06;;;-1.90;93.59
55759;BME280;41678;52.126;20.664;2023-01-29T03:04:03;101103.88;;;-1.87;93.04
55759;BME280;41678;52.126;20.664;2023-01-29T03:09:47;101100.09;;;-1.93;93.43
55759;BME280;41678;52.126;20.664;2023-01-29T03:15:19;101095.84;;;-1.93;93.93
55759;BME280;41678;52.126;20.664;2023-01-29T03:21:14;101097.66;;;-1.90;93.31
55759;BME280;41678;52.126;20.664;2023-01-29T03:26:55;101096.94;;;-1.88;93.36
55759;BME280;41678;52.126;20.664;2023-01-29T03:32:37;101099.53;;;-1.88;93.91
55759;BME280;41678;52.126;20.664;2023-01-29T03:37:59;101081.47;;;-1.88;93.60
55759;BME280;41678;52.126;20.664;2023-01-29T03:43:35;101090.72;;;-1.91;93.49
55759;BME280;41678;52.126;20.664;2023-01-29T03:54:43;101084.03;;;-1.88;93.44
55759;BME280;41678;52.126;20.664;2023-01-29T04:00:20;101096.00;;;-1.90;93.65
55759;BME280;41678;52.126;20.664;2023-01-29T04:05:58;101083.09;;;-1.90;93.78
55759;BME280;41678;52.126;20.664;2023-01-29T04:11:28;101081.72;;;-1.83;93.49
55759;BME280;41678;52.126;20.664;2023-01-29T04:16:51;101075.50;;;-1.87;93.34
55759;BME280;41678;52.126;20.664;2023-01-29T04:22:39;101063.34;;;-1.89;93.87
55759;BME280;41678;52.126;20.664;2023-01-29T04:28:33;101063.16;;;-1.92;93.35
55759;BME280;41678;52.126;20.664;2023-01-29T04:45:26;101060.41;;;-1.79;92.81
55759;BME280;41678;52.126;20.664;2023-01-29T04:51:07;101061.16;;;-1.81;93.19
55759;BME280;41678;52.126;20.664;2023-01-29T04:56:34;101061.16;;;-1.81;93.02
55759;BME280;41678;52.126;20.664;2023-01-29T05:01:58;101042.75;;;-1.88;93.57
55759;BME280;41678;52.126;20.664;2023-01-29T05:07:20;101034.28;;;-1.85;93.49
55759;BME280;41678;52.126;20.664;2023-01-29T05:12:42;101036.09;;;-1.82;93.41
55759;BME280;41678;52.126;20.664;2023-01-29T05:18:04;101040.16;;;-1.88;93.38
55759;BME280;41678;52.126;20.664;2023-01-29T05:23:27;101042.41;;;-1.77;93.52
55759;BME280;41678;52.126;20.664;2023-01-29T05:28:46;101028.34;;;-1.82;93.42
55759;BME280;41678;52.126;20.664;2023-01-29T05:34:06;101027.63;;;-1.80;93.16
55759;BME280;41678;52.126;20.664;2023-01-29T05:39:25;101021.44;;;-1.83;93.72
55759;BME280;41678;52.126;20.664;2023-01-29T05:44:44;101020.72;;;-1.81;93.57
55759;BME280;41678;52.126;20.664;2023-01-29T05:50:04;101014.81;;;-1.78;93.54
55759;BME280;41678;52.126;20.664;2023-01-29T05:55:25;101026.00;;;-1.78;93.14
55759;BME280;41678;52.126;20.664;2023-01-29T06:00:44;101015.63;;;-1.79;93.51
55759;BME280;41678;52.126;20.664;2023-01-29T06:06:04;101006.50;;;-1.73;92.85
55759;BME280;41678;52.126;20.664;2023-01-29T06:11:23;101020.28;;;-1.72;93.34
55759;BME280;41678;52.126;20.664;2023-01-29T06:16:43;101032.38;;;-1.71;93.02
55759;BME280;41678;52.126;20.664;2023-01-29T06:22:03;101029.00;;;-1.70;93.02
55759;BME280;41678;52.126;20.664;2023-01-29T06:27:22;101039.25;;;-1.72;92.88
55759;BME280;41678;52.126;20.664;2023-01-29T06:32:42;101034.25;;;-1.68;92.97
55759;BME280;41678;52.126;20.664;2023-01-29T06:38:01;101022.88;;;-1.72;92.87
55759;BME280;41678;52.126;20.664;2023-01-29T06:43:21;101021.34;;;-1.68;93.19
55759;BME280;41678;52.126;20.664;2023-01-29T06:48:42;101022.19;;;-1.68;92.88
55759;BME280;41678;52.126;20.664;2023-01-29T06:54:02;101016.06;;;-1.70;93.49
55759;BME280;41678;52.126;20.664;2023-01-29T06:59:22;101018.75;;;-1.68;92.65
55759;BME280;41678;52.126;20.664;2023-01-29T07:04:41;101022.06;;;-1.71;93.35
55759;BME280;41678;52.126;20.664;2023-01-29T07:10:01;101017.22;;;-1.65;93.26
55759;BME280;41678;52.126;20.664;2023-01-29T07:15:20;100988.00;;;-1.64;93.02
55759;BME280;41678;52.126;20.664;2023-01-29T07:20:41;100996.84;;;-1.59;92.73
55759;BME280;41678;52.126;20.664;2023-01-29T07:26:02;100998.63;;;-1.58;92.65
55759;BME280;41678;52.126;20.664;2023-01-29T07:31:22;101003.78;;;-1.58;92.64
55759;BME280;41678;52.126;20.664;2023-01-29T07:36:42;101019.59;;;-1.51;92.22
55759;BME280;41678;52.126;20.664;2023-01-29T07:42:01;101009.84;;;-1.57;92.80
55759;BME280;41678;52.126;20.664;2023-01-29T07:47:21;101014.25;;;-1.54;91.80
55759;BME280;41678;52.126;20.664;2023-01-29T07:52:40;101023.88;;;-1.52;92.29
55759;BME280;41678;52.126;20.664;2023-01-29T07:58:02;101014.63;;;-1.47;92.26
55759;BME280;41678;52.126;20.664;2023-01-29T08:03:22;101013.09;;;-1.43;92.22
55759;BME280;41678;52.126;20.664;2023-01-29T08:08:41;101011.56;;;-1.39;92.18
55759;BME280;41678;52.126;20.664;2023-01-29T08:14:01;101002.91;;;-1.40;92.03
55759;BME280;41678;52.126;20.664;2023-01-29T08:19:20;100988.44;;;-1.36;92.35
55759;BME280;41678;52.126;20.664;2023-01-29T08:24:40;100989.34;;;-1.36;91.98
55759;BME280;41678;52.126;20.664;2023-01-29T08:29:59;100985.34;;;-1.29;92.13
55759;BME280;41678;52.126;20.664;2023-01-29T08:35:18;100985.41;;;-1.27;92.21
55759;BME280;41678;52.126;20.664;2023-01-29T08:40:38;100988.00;;;-1.27;92.18
55759;BME280;41678;52.126;20.664;2023-01-29T08:45:57;100992.66;;;-1.20;91.86
55759;BME280;41678;52.126;20.664;2023-01-29T08:51:17;100992.22;;;-1.11;91.31
55759;BME280;41678;52.126;20.664;2023-01-29T08:56:37;100971.53;;;-1.11;91.60
55759;BME280;41678;52.126;20.664;2023-01-29T09:01:56;100983.88;;;-1.06;91.13
55759;BME280;41678;52.126;20.664;2023-01-29T09:07:15;100972.72;;;-1.05;91.93
55759;BME280;41678;52.126;20.664;2023-01-29T09:12:35;100959.78;;;-1.05;91.69
55759;BME280;41678;52.126;20.664;2023-01-29T09:17:55;100946.59;;;-0.91;91.44
55759;BME280;41678;52.126;20.664;2023-01-29T09:23:14;100949.53;;;-0.83;91.96
55759;BME280;41678;52.126;20.664;2023-01-29T09:28:34;100940.22;;;-0.80;91.48
55759;BME280;41678;52.126;20.664;2023-01-29T09:33:53;100943.09;;;-0.74;91.10
55759;BME280;41678;52.126;20.664;2023-01-29T09:39:14;100938.75;;;-0.75;91.10
55759;BME280;41678;52.126;20.664;2023-01-29T09:50:18;100921.13;;;-0.64;91.75
55759;BME280;41678;52.126;20.664;2023-01-29T09:55:45;100914.56;;;-0.55;91.49
55759;BME280;41678;52.126;20.664;2023-01-29T10:01:21;100917.34;;;-0.51;91.79
55759;BME280;41678;52.126;20.664;2023-01-29T10:23:40;100894.84;;;-0.32;92.11
55759;BME280;41678;52.126;20.664;2023-01-29T10:29:06;100894.03;;;-0.31;92.33
55759;BME280;41678;52.126;20.664;2023-01-29T10:34:44;100885.31;;;-0.33;92.17
55759;BME280;41678;52.126;20.664;2023-01-29T10:40:18;100886.41;;;-0.28;92.33
55759;BME280;41678;52.126;20.664;2023-01-29T10:45:59;100874.22;;;-0.31;92.66
55759;BME280;41678;52.126;20.664;2023-01-29T10:51:28;100877.63;;;-0.32;92.82
55759;BME280;41678;52.126;20.664;2023-01-29T10:56:58;100876.88;;;-0.29;92.95
55759;BME280;41678;52.126;20.664;2023-01-29T11:02:20;100872.47;;;-0.32;93.43
55759;BME280;41678;52.126;20.664;2023-01-29T11:07:40;100858.78;;;-0.29;93.11
55759;BME280;41678;52.126;20.664;2023-01-29T11:13:01;100852.91;;;-0.25;93.36
55759;BME280;41678;52.126;20.664;2023-01-29T11:18:22;100855.69;;;-0.20;94.10
55759;BME280;41678;52.126;20.664;2023-01-29T11:23:43;100840.91;;;-0.23;93.83
55759;BME280;41678;52.126;20.664;2023-01-29T11:29:02;100828.09;;;-0.20;94.04
55759;BME280;41678;52.126;20.664;2023-01-29T11:34:23;100816.91;;;-0.19;94.56
55759;BME280;41678;52.126;20.664;2023-01-29T11:39:47;100804.16;;;-0.14;94.17
55759;BME280;41678;52.126;20.664;2023-01-29T11:45:24;100785.09;;;-0.16;94.54
55759;BME280;41678;52.126;20.664;2023-01-29T11:50:51;100781.69;;;-0.15;94.81
55759;BME280;41678;52.126;20.664;2023-01-29T12:02:46;100774.75;;;-0.16;94.72
55759;BME280;41678;52.126;20.664;2023-01-29T12:08:14;100755.59;;;-0.20;94.77
55759;BME280;41678;52.126;20.664;2023-01-29T12:13:35;100755.59;;;-0.20;94.78
55759;BME280;41678;52.126;20.664;2023-01-29T12:19:04;100738.31;;;-0.21;95.09
55759;BME280;41678;52.126;20.664;2023-01-29T12:24:30;100733.22;;;-0.19;94.78
55759;BME280;41678;52.126;20.664;2023-01-29T12:30:15;100740.16;;;-0.18;95.23
55759;BME280;41678;52.126;20.664;2023-01-29T12:35:43;100739.38;;;-0.16;94.65
55759;BME280;41678;52.126;20.664;2023-01-29T12:41:27;100722.78;;;-0.21;95.42
55759;BME280;41678;52.126;20.664;2023-01-29T12:46:53;100709.97;;;-0.18;95.49
55759;BME280;41678;52.126;20.664;2023-01-29T12:52:42;100695.06;;;-0.23;94.97
55759;BME280;41678;52.126;20.664;2023-01-29T12:58:15;100704.75;;;-0.19;95.26
55759;BME280;41678;52.126;20.664;2023-01-29T13:03:51;100696.09;;;-0.20;95.74
55759;BME280;41678;52.126;20.664;2023-01-29T13:09:25;100702.84;;;-0.23;95.65
55759;BME280;41678;52.126;20.664;2023-01-29T13:14:47;100716.66;;;-0.23;96.13
55759;BME280;41678;52.126;20.664;2023-01-29T13:20:15;100697.50;;;-0.28;96.05
55759;BME280;41678;52.126;20.664;2023-01-29T13:25:36;100719.91;;;-0.29;95.88
55759;BME280;41678;52.126;20.664;2023-01-29T13:36:33;100717.06;;;-0.35;96.12
55759;BME280;41678;52.126;20.664;2023-01-29T13:41:56;100712.09;;;-0.30;96.11
55759;BME280;41678;52.126;20.664;2023-01-29T13:47:27;100693.72;;;-0.36;96.51
55759;BME280;41678;52.126;20.664;2023-01-29T13:53:26;100678.84;;;-0.42;96.26
55759;BME280;41678;52.126;20.664;2023-01-29T14:15:12;100699.00;;;-0.33;96.69
55759;BME280;41678;52.126;20.664;2023-01-29T14:20:53;100704.19;;;-0.33;96.74
55759;BME280;41678;52.126;20.664;2023-01-29T14:26:47;100691.56;;;-0.47;96.64
55759;BME280;41678;52.126;20.664;2023-01-29T14:32:16;100694.34;;;-0.42;96.80
55759;BME280;41678;52.126;20.664;2023-01-29T14:37:39;100685.91;;;-0.38;97.44
55759;BME280;41678;52.126;20.664;2023-01-29T14:43:07;100678.06;;;-0.39;97.61
55759;BME280;41678;52.126;20.664;2023-01-29T14:48:45;100659.03;;;-0.41;97.11
55759;BME280;41678;52.126;20.664;2023-01-29T14:54:17;100662.56;;;-0.39;97.50
55759;BME280;41678;52.126;20.664;2023-01-29T15:05:15;100684.78;;;-0.45;97.56
55759;BME280;41678;52.126;20.664;2023-01-29T15:10:48;100674.38;;;-0.46;97.29
55759;BME280;41678;52.126;20.664;2023-01-29T15:16:45;100683.00;;;-0.46;97.47
55759;BME280;41678;52.126;20.664;2023-01-29T15:22:11;100680.38;;;-0.47;98.17
55759;BME280;41678;52.126;20.664;2023-01-29T15:27:32;100675.22;;;-0.46;97.62
55759;BME280;41678;52.126;20.664;2023-01-29T15:32:52;100645.72;;;-0.51;97.90
55759;BME280;41678;52.126;20.664;2023-01-29T15:38:19;100644.19;;;-0.46;98.02
55759;BME280;41678;52.126;20.664;2023-01-29T15:43:43;100638.06;;;-0.48;98.38
55759;BME280;41678;52.126;20.664;2023-01-29T15:49:09;100637.97;;;-0.51;98.67
55759;BME280;41678;52.126;20.664;2023-01-29T16:01:12;100623.19;;;-0.53;98.56
55759;BME280;41678;52.126;20.664;2023-01-29T16:06:35;100625.09;;;-0.49;98.51
55759;BME280;41678;52.126;20.664;2023-01-29T16:11:57;100604.94;;;-0.58;98.71
55759;BME280;41678;52.126;20.664;2023-01-29T16:17:26;100623.25;;;-0.52;98.93
55759;BME280;41678;52.126;20.664;2023-01-29T16:22:58;100637.03;;;-0.53;98.67
55759;BME280;41678;52.126;20.664;2023-01-29T16:28:18;100624.19;;;-0.50;99.12
55759;BME280;41678;52.126;20.664;2023-01-29T16:33:42;100630.91;;;-0.55;98.81
55759;BME280;41678;52.126;20.664;2023-01-29T16:39:05;100630.00;;;-0.55;99.14
55759;BME280;41678;52.126;20.664;2023-01-29T16:44:35;100628.44;;;-0.52;99.08
55759;BME280;41678;52.126;20.664;2023-01-29T16:55:38;100627.72;;;-0.48;99.00
55759;BME280;41678;52.126;20.664;2023-01-29T17:01:05;100624.09;;;-0.53;99.49
55759;BME280;41678;52.126;20.664;2023-01-29T17:06:26;100615.31;;;-0.57;98.70
55759;BME280;41678;52.126;20.664;2023-01-29T17:11:47;100614.69;;;-0.51;99.49
55759;BME280;41678;52.126;20.664;2023-01-29T17:17:15;100606.09;;;-0.50;99.19
55759;BME280;41678;52.126;20.664;2023-01-29T17:22:38;100596.56;;;-0.51;99.12
55759;BME280;41678;52.126;20.664;2023-01-29T17:28:01;100583.53;;;-0.54;99.16
55759;BME280;41678;52.126;20.664;2023-01-29T17:33:21;100588.09;;;-0.47;99.33
55759;BME280;41678;52.126;20.664;2023-01-29T17:38:41;100564.69;;;-0.50;99.31
55759;BME280;41678;52.126;20.664;2023-01-29T17:44:02;100553.50;;;-0.50;99.40
55759;BME280;41678;52.126;20.664;2023-01-29T17:49:27;100551.59;;;-0.54;99.12
55759;BME280;41678;52.126;20.664;2023-01-29T17:54:47;100524.78;;;-0.57;99.07
55759;BME280;41678;52.126;20.664;2023-01-29T18:00:16;100523.09;;;-0.56;99.35
55759;BME280;41678;52.126;20.664;2023-01-29T18:05:36;100509.97;;;-0.61;99.77
55759;BME280;41678;52.126;20.664;2023-01-29T18:10:56;100494.53;;;-0.59;99.57
55759;BME280;41678;52.126;20.664;2023-01-29T18:16:15;100493.19;;;-0.48;99.17
55759;BME280;41678;52.126;20.664;2023-01-29T18:21:36;100492.16;;;-0.53;99.55
55759;BME280;41678;52.126;20.664;2023-01-29T18:26:56;100482.00;;;-0.48;99.72
55759;BME280;41678;52.126;20.664;2023-01-29T18:32:15;100478.75;;;-0.43;99.61
55759;BME280;41678;52.126;20.664;2023-01-29T18:37:35;100484.78;;;-0.42;99.43
55759;BME280;41678;52.126;20.664;2023-01-29T18:42:54;100469.00;;;-0.50;99.63
55759;BME280;41678;52.126;20.664;2023-01-29T18:48:14;100478.41;;;-0.52;99.68
55759;BME280;41678;52.126;20.664;2023-01-29T18:53:33;100474.44;;;-0.42;100.00
55759;BME280;41678;52.126;20.664;2023-01-29T18:58:53;100465.56;;;-0.49;99.80
55759;BME280;41678;52.126;20.664;2023-01-29T19:04:14;100469.34;;;-0.40;99.76
55759;BME280;41678;52.126;20.664;2023-01-29T19:09:34;100460.84;;;-0.36;99.46
55759;BME280;41678;52.126;20.664;2023-01-29T19:14:53;100463.41;;;-0.38;99.85
55759;BME280;41678;52.126;20.664;2023-01-29T19:20:13;100470.19;;;-0.40;99.42
55759;BME280;41678;52.126;20.664;2023-01-29T19:25:37;100465.81;;;-0.43;99.96
55759;BME280;41678;52.126;20.664;2023-01-29T19:30:58;100454.94;;;-0.32;100.00
55759;BME280;41678;52.126;20.664;2023-01-29T19:36:18;100451.41;;;-0.36;99.92
55759;BME280;41678;52.126;20.664;2023-01-29T19:41:37;100435.06;;;-0.33;99.49
55759;BME280;41678;52.126;20.664;2023-01-29T19:46:57;100435.16;;;-0.32;99.54
55759;BME280;41678;52.126;20.664;2023-01-29T19:52:16;100427.13;;;-0.39;100.00
55759;BME280;41678;52.126;20.664;2023-01-29T19:57:52;100416.00;;;-0.37;100.00
55759;BME280;41678;52.126;20.664;2023-01-29T20:03:48;100412.72;;;-0.31;100.00
55759;BME280;41678;52.126;20.664;2023-01-29T20:09:10;100404.75;;;-0.37;100.00
55759;BME280;41678;52.126;20.664;2023-01-29T20:14:29;100386.59;;;-0.39;99.97
55759;BME280;41678;52.126;20.664;2023-01-29T20:19:49;100387.56;;;-0.35;100.00
55759;BME280;41678;52.126;20.664;2023-01-29T20:25:08;100374.63;;;-0.35;100.00
55759;BME280;41678;52.126;20.664;2023-01-29T20:30:28;100371.13;;;-0.37;100.00
55759;BME280;41678;52.126;20.664;2023-01-29T20:35:59;100363.34;;;-0.37;99.78
55759;BME280;41678;52.126;20.664;2023-01-29T20:41:18;100336.47;;;-0.43;99.99
55759;BME280;41678;52.126;20.664;2023-01-29T20:46:38;100328.06;;;-0.35;100.00
55759;BME280;41678;52.126;20.664;2023-01-29T20:51:58;100323.69;;;-0.38;100.00
55759;BME280;41678;52.126;20.664;2023-01-29T20:57:17;100310.59;;;-0.43;99.98
55759;BME280;41678;52.126;20.664;2023-01-29T21:02:37;100304.63;;;-0.40;100.00
55759;BME280;41678;52.126;20.664;2023-01-29T21:07:56;100302.19;;;-0.35;100.00
55759;BME280;41678;52.126;20.664;2023-01-29T21:13:16;100307.38;;;-0.35;100.00
55759;BME280;41678;52.126;20.664;2023-01-29T21:18:35;100301.38;;;-0.34;100.00
55759;BME280;41678;52.126;20.664;2023-01-29T21:23:55;100300.00;;;-0.23;100.00
55759;BME280;41678;52.126;20.664;2023-01-29T21:29:16;100286.75;;;-0.32;100.00
55759;BME280;41678;52.126;20.664;2023-01-29T21:34:36;100298.34;;;-0.21;100.00
55759;BME280;41678;52.126;20.664;2023-01-29T21:39:55;100290.56;;;-0.22;100.00
55759;BME280;41678;52.126;20.664;2023-01-29T21:45:16;100283.56;;;-0.25;100.00
55759;BME280;41678;52.126;20.664;2023-01-29T21:50:36;100280.97;;;-0.25;100.00
55759;BME280;41678;52.126;20.664;2023-01-29T21:56:00;100274.44;;;-0.13;100.00
55759;BME280;41678;52.126;20.664;2023-01-29T22:01:20;100252.78;;;-0.16;100.00
55759;BME280;41678;52.126;20.664;2023-01-29T22:06:39;100248.44;;;-0.17;100.00
55759;BME280;41678;52.126;20.664;2023-01-29T22:11:58;100237.13;;;-0.20;100.00
55759;BME280;41678;52.126;20.664;2023-01-29T22:17:18;100235.41;;;-0.20;100.00
55759;BME280;41678;52.126;20.664;2023-01-29T22:22:40;100218.19;;;-0.19;100.00
55759;BME280;41678;52.126;20.664;2023-01-29T22:28:00;100204.31;;;-0.21;100.00
55759;BME280;41678;52.126;20.664;2023-01-29T22:33:20;100198.50;;;-0.14;100.00
55759;BME280;41678;52.126;20.664;2023-01-29T22:38:42;100187.38;;;-0.11;100.00
55759;BME280;41678;52.126;20.664;2023-01-29T22:44:02;100174.44;;;-0.11;100.00
55759;BME280;41678;52.126;20.664;2023-01-29T22:49:21;100150.53;;;-0.01;100.00
55759;BME280;41678;52.126;20.664;2023-01-29T22:54:43;100134.25;;;0.02;100.00
55759;BME280;41678;52.126;20.664;2023-01-29T23:00:05;100123.03;;;0.01;100.00
55759;BME280;41678;52.126;20.664;2023-01-29T23:05:25;100108.13;;;-0.06;100.00
55759;BME280;41678;52.126;20.664;2023-01-29T23:10:44;100102.47;;;0.07;100.00
55759;BME280;41678;52.126;20.664;2023-01-29T23:16:04;100093.72;;;0.04;100.00
55759;BME280;41678;52.126;20.664;2023-01-29T23:21:24;100080.84;;;0.05;100.00
55759;BME280;41678;52.126;20.664;2023-01-29T23:26:44;100070.41;;;0.02;100.00
55759;BME280;41678;52.126;20.664;2023-01-29T23:32:22;100067.22;;;0.12;100.00
55759;BME280;41678;52.126;20.664;2023-01-29T23:37:42;100064.59;;;0.11;100.00
55759;BME280;41678;52.126;20.664;2023-01-29T23:43:01;100049.91;;;0.10;100.00
55759;BME280;41678;52.126;20.664;2023-01-29T23:48:21;100048.38;;;0.17;100.00
55759;BME280;41678;52.126;20.664;2023-01-29T23:53:41;100046.75;;;0.22;100.00
55759;BME280;41678;52.126;20.664;2023-01-29T23:59:00;100041.59;;;0.22;100.00
